Time;durP1;ratioP1;P1;durP2;ratioP2;P2;SDS_P1;SDS_P2;PMS_P1;PMS_P2;Temp;Humidity;BMP_temperature;BMP_pressure;BME280_temperature;BME280_humidity;BME280_pressure;Samples;Min_cycle;Max_cycle;Signal;HPM_P1;HPM_P2
2022/01/26 00:07:33;;;;;;;;;;;3.00;93.30;;;;;;5094212;28;20435;-87
2022/01/26 00:09:58;;;;;;;;;;;3.00;93.30;;;;;;5094776;28;19912;-88
2022/01/26 00:12:24;;;;;;;;;;;3.00;93.30;;;;;;5094602;28;20282;-88
2022/01/26 00:14:50;;;;;;;;;;;3.00;93.30;;;;;;5094503;28;20317;-88
2022/01/26 00:17:15;;;;;;;;;;;3.00;93.30;;;;;;5094717;28;20352;-88
2022/01/26 00:19:56;;;;;;;;;;;3.00;93.40;;;;;;5094620;28;19985;-87
2022/01/26 00:22:43;;;;;;;;;;;3.00;93.40;;;;;;5094285;28;19916;-88
2022/01/26 00:28:07;;;;;;;;;;;2.90;93.50;;;;;;5094665;28;20383;-88
2022/01/26 00:38:49;;;;;;;;;;;2.80;93.40;;;;;;5092389;28;19920;-87
2022/01/26 00:41:18;;;;;;;;;;;2.80;93.50;;;;;;5094264;28;19995;-88
2022/01/26 00:43:51;;;;;;;;;;;2.80;93.50;;;;;;5093914;28;19918;-88
2022/01/26 00:46:17;;;;;;;;;;;2.80;93.60;;;;;;5093916;28;20019;-88
2022/01/26 00:48:43;;;;;;;;;;;2.80;93.50;;;;;;5093836;28;19955;-88
2022/01/26 00:51:10;;;;;;;;;;;2.70;93.40;;;;;;5094101;28;19989;-88
2022/01/26 00:53:40;;;;;;;;;;;2.70;93.60;;;;;;5093734;28;19918;-88
2022/01/26 00:56:06;;;;;;;;;;;2.70;93.60;;;;;;5093988;28;19915;-87
2022/01/26 00:58:32;;;;;;;;;;;2.70;93.70;;;;;;5093989;28;19995;-88
2022/01/26 01:01:00;;;;;;;;;;;2.60;93.70;;;;;;5093770;28;19935;-87
2022/01/26 01:03:27;;;;;;;;;;;2.70;93.80;;;;;;5093870;28;19908;-88
2022/01/26 01:08:21;;;;;;;;;;;2.60;94.00;;;;;;5093787;28;19939;-87
2022/01/26 01:10:48;;;;;;;;;;;2.70;94.10;;;;;;5093675;28;19905;-87
2022/01/26 01:13:18;;;;;;;;;;;2.70;94.20;;;;;;5093760;28;19908;-88
2022/01/26 01:15:44;;;;;;;;;;;2.70;94.00;;;;;;5093746;28;19922;-88
2022/01/26 01:30:53;;;;;;;;;;;2.70;93.90;;;;;;5093475;28;19912;-88
2022/01/26 01:33:22;;;;;;;;;;;2.70;93.80;;;;;;5093150;28;19912;-88
2022/01/26 01:35:49;;;;;;;;;;;2.70;93.80;;;;;;5093306;28;20366;-88
2022/01/26 01:38:18;;;;;;;;;;;2.80;93.80;;;;;;5093029;28;19919;-88
2022/01/26 01:40:47;;;;;;;;;;;2.90;93.90;;;;;;5093314;28;20358;-88
2022/01/26 01:43:13;;;;;;;;;;;3.10;93.90;;;;;;5093318;28;20060;-88
2022/01/26 01:45:45;;;;;;;;;;;3.20;93.80;;;;;;5094336;22;21295;-88
2022/01/26 01:48:13;;;;;;;;;;;3.30;93.50;;;;;;5052327;28;20022;-88
2022/01/26 01:50:41;;;;;;;;;;;3.30;92.60;;;;;;5052633;28;19967;-88
2022/01/26 01:53:10;;;;;;;;;;;3.30;92.10;;;;;;5052747;28;19913;-88
2022/01/26 01:55:40;;;;;;;;;;;3.30;91.90;;;;;;5052976;28;19915;-88
2022/01/26 01:58:07;;;;;;;;;;;3.20;91.70;;;;;;5052684;28;19974;-88
2022/01/26 02:00:33;;;;;;;;;;;3.20;91.60;;;;;;5052880;28;19932;-88
2022/01/26 02:03:00;;;;;;;;;;;3.20;91.70;;;;;;5052586;28;19912;-88
2022/01/26 02:05:25;;;;;;;;;;;3.10;91.70;;;;;;5052858;28;19916;-88
2022/01/26 02:07:51;;;;;;;;;;;3.10;91.80;;;;;;5052412;28;19924;-88
2022/01/26 02:10:17;;;;;;;;;;;3.10;92.00;;;;;;5052742;28;19916;-88
2022/01/26 02:12:48;;;;;;;;;;;3.20;92.10;;;;;;5052792;28;19913;-88
2022/01/26 02:15:20;;;;;;;;;;;3.30;92.10;;;;;;5053031;28;19916;-88
2022/01/26 02:53:22;;;;;;;;;;;3.30;91.70;;;;;;5055860;28;19920;-88
2022/01/26 02:55:56;;;;;;;;;;;3.40;91.70;;;;;;5055898;28;20349;-88
2022/01/26 03:06:07;;;;;;;;;;;3.70;90.70;;;;;;5055795;28;19943;-88
2022/01/26 03:08:41;;;;;;;;;;;3.70;90.40;;;;;;5055763;28;19909;-88
2022/01/26 03:11:10;;;;;;;;;;;3.80;89.80;;;;;;5055788;28;19909;-88
2022/01/26 03:13:40;;;;;;;;;;;3.60;89.60;;;;;;5055749;28;19948;-88
2022/01/26 03:21:45;;;;;;;;;;;3.30;90.70;;;;;;5040146;28;20286;-87
2022/01/26 03:29:53;;;;;;;;;;;3.20;91.30;;;;;;5055383;28;19959;-88
2022/01/26 03:35:04;;;;;;;;;;;3.30;91.30;;;;;;5055353;28;20294;-88
2022/01/26 03:37:37;;;;;;;;;;;3.30;91.10;;;;;;5054967;28;19932;-88
2022/01/26 03:40:11;;;;;;;;;;;3.40;90.90;;;;;;5054879;28;19909;-88
2022/01/26 03:42:36;;;;;;;;;;;3.40;90.50;;;;;;5055179;28;19909;-88
2022/01/26 03:45:02;;;;;;;;;;;3.40;90.40;;;;;;5055155;28;19915;-88
2022/01/26 03:47:28;;;;;;;;;;;3.40;90.20;;;;;;5054616;28;20015;-88
2022/01/26 03:49:53;;;;;;;;;;;3.50;90.20;;;;;;5055096;28;19909;-88
2022/01/26 03:52:19;;;;;;;;;;;3.50;89.70;;;;;;5054712;28;20294;-87
2022/01/26 03:54:44;;;;;;;;;;;3.40;89.10;;;;;;5055012;28;20316;-88
2022/01/26 03:57:10;;;;;;;;;;;3.20;89.60;;;;;;5054602;28;19913;-88
2022/01/26 03:59:35;;;;;;;;;;;3.20;90.10;;;;;;5054890;28;19909;-87
2022/01/26 04:02:01;;;;;;;;;;;3.10;90.40;;;;;;5054831;28;19908;-87
2022/01/26 04:04:30;;;;;;;;;;;3.10;90.60;;;;;;5054773;28;19995;-87
2022/01/26 04:06:59;;;;;;;;;;;3.00;90.60;;;;;;5054395;28;20432;-88
2022/01/26 04:09:24;;;;;;;;;;;3.00;90.80;;;;;;5054376;28;19913;-88
2022/01/26 04:11:50;;;;;;;;;;;3.10;91.00;;;;;;5054634;28;19916;-88
2022/01/26 04:14:19;;;;;;;;;;;3.20;91.00;;;;;;5054846;28;20000;-88
2022/01/26 04:16:45;;;;;;;;;;;3.30;90.70;;;;;;5054263;28;20011;-88
2022/01/26 04:19:11;;;;;;;;;;;3.30;90.50;;;;;;5054763;28;19909;-87
2022/01/26 04:27:20;;;;;;;;;;;3.50;89.70;;;;;;5011909;28;20003;-88
2022/01/26 04:29:47;;;;;;;;;;;3.50;89.50;;;;;;5012315;28;19910;-88
2022/01/26 04:32:15;;;;;;;;;;;3.50;89.00;;;;;;5035034;28;19912;-88
2022/01/26 04:34:40;;;;;;;;;;;3.50;88.70;;;;;;5054176;28;19909;-88
2022/01/26 04:39:38;;;;;;;;;;;3.30;89.00;;;;;;5054397;28;19996;-88
2022/01/26 04:42:10;;;;;;;;;;;3.20;89.40;;;;;;5053805;28;19916;-88
2022/01/26 04:44:42;;;;;;;;;;;3.20;89.60;;;;;;5054026;28;19913;-88
2022/01/26 04:47:08;;;;;;;;;;;3.10;89.80;;;;;;5053415;28;19940;-88
2022/01/26 04:49:34;;;;;;;;;;;3.00;90.20;;;;;;5053933;28;19916;-88
2022/01/26 04:52:00;;;;;;;;;;;3.10;90.50;;;;;;5052849;28;19948;-88
2022/01/26 04:54:26;;;;;;;;;;;3.10;90.60;;;;;;5035958;28;19919;-88
2022/01/26 04:56:52;;;;;;;;;;;3.20;90.60;;;;;;5053506;28;19908;-88
2022/01/26 04:59:17;;;;;;;;;;;3.20;90.50;;;;;;5053743;28;19917;-88
2022/01/26 05:01:43;;;;;;;;;;;3.30;90.30;;;;;;5053481;28;19916;-88
2022/01/26 05:04:08;;;;;;;;;;;3.40;90.20;;;;;;5053609;28;20333;-88
2022/01/26 05:06:34;;;;;;;;;;;3.40;89.90;;;;;;5053238;28;19920;-88
2022/01/26 05:08:59;;;;;;;;;;;3.50;89.60;;;;;;5053510;28;19913;-88
2022/01/26 05:11:48;;;;;;;;;;;3.50;89.00;;;;;;5053272;28;19916;-87
2022/01/26 05:14:11;;;;;;;;;;;3.40;89.10;;;;;;5052946;28;19913;-88
2022/01/26 05:16:36;;;;;;;;;;;3.30;89.60;;;;;;5053159;28;19916;-87
2022/01/26 05:19:04;;;;;;;;;;;3.20;89.90;;;;;;5053400;28;20396;-87
2022/01/26 05:21:30;;;;;;;;;;;3.10;90.10;;;;;;5053030;28;19995;-88
2022/01/26 05:23:56;;;;;;;;;;;3.10;90.30;;;;;;5053020;28;20010;-88
2022/01/26 05:26:21;;;;;;;;;;;3.00;90.60;;;;;;5052998;28;20488;-88
2022/01/26 05:28:47;;;;;;;;;;;3.10;90.80;;;;;;5052929;28;20408;-88
2022/01/26 05:31:13;;;;;;;;;;;3.20;90.90;;;;;;5053232;28;20299;-88
2022/01/26 05:33:39;;;;;;;;;;;3.30;90.90;;;;;;5053203;28;19909;-88
2022/01/26 05:36:05;;;;;;;;;;;3.30;90.90;;;;;;5052888;28;19909;-88
2022/01/26 05:38:30;;;;;;;;;;;3.40;90.80;;;;;;5053152;28;19959;-88
2022/01/26 05:40:58;;;;;;;;;;;3.50;90.40;;;;;;5053081;28;19909;-88
2022/01/26 05:43:24;;;;;;;;;;;3.50;90.00;;;;;;5053099;28;19963;-88
2022/01/26 05:45:54;;;;;;;;;;;3.50;89.80;;;;;;5052940;28;19921;-88
2022/01/26 05:48:19;;;;;;;;;;;3.40;89.80;;;;;;5052898;28;19921;-88
2022/01/26 05:50:53;;;;;;;;;;;3.40;89.90;;;;;;5052114;28;20263;-88
2022/01/26 05:53:21;;;;;;;;;;;3.30;90.10;;;;;;5052267;28;19924;-88
2022/01/26 05:55:48;;;;;;;;;;;3.30;90.40;;;;;;5041586;28;19962;-88
2022/01/26 05:58:13;;;;;;;;;;;3.20;90.60;;;;;;5044477;28;20964;-87
2022/01/26 06:00:39;;;;;;;;;;;3.10;90.70;;;;;;5045186;28;19996;-88
2022/01/26 06:03:05;;;;;;;;;;;3.00;90.90;;;;;;5052630;28;19955;-88
2022/01/26 06:05:30;;;;;;;;;;;3.00;91.10;;;;;;5055353;28;19958;-88
2022/01/26 06:07:56;;;;;;;;;;;3.00;91.60;;;;;;5055701;28;19928;-88
2022/01/26 06:10:21;;;;;;;;;;;3.20;91.60;;;;;;5055241;28;19913;-87
2022/01/26 06:12:47;;;;;;;;;;;3.20;91.30;;;;;;5056021;28;19912;-88
2022/01/26 06:15:12;;;;;;;;;;;3.20;91.00;;;;;;5055665;28;19921;-88
2022/01/26 06:17:38;;;;;;;;;;;3.10;91.00;;;;;;5055076;28;19916;-88
2022/01/26 06:20:04;;;;;;;;;;;3.10;90.90;;;;;;5054736;28;20027;-87
2022/01/26 06:22:30;;;;;;;;;;;3.20;91.00;;;;;;5054676;28;19920;-88
2022/01/26 06:24:57;;;;;;;;;;;3.10;91.20;;;;;;5055196;28;20375;-88
2022/01/26 06:27:23;;;;;;;;;;;3.10;91.40;;;;;;5052191;28;19959;-87
2022/01/26 06:29:48;;;;;;;;;;;3.10;91.50;;;;;;5055809;28;20367;-87
2022/01/26 06:32:16;;;;;;;;;;;3.10;91.50;;;;;;5054590;28;20386;-88
2022/01/26 06:34:42;;;;;;;;;;;3.20;91.60;;;;;;5050843;28;19913;-88
2022/01/26 06:37:08;;;;;;;;;;;3.30;91.80;;;;;;5050848;28;20308;-88
2022/01/26 06:39:34;;;;;;;;;;;3.40;91.80;;;;;;5048681;28;20441;-88
2022/01/26 06:41:59;;;;;;;;;;;3.40;91.60;;;;;;5049640;28;19912;-87
2022/01/26 06:44:33;;;;;;;;;;;3.50;91.50;;;;;;5046618;28;19939;-88
2022/01/26 06:49:28;;;;;;;;;;;3.60;90.40;;;;;;5051446;28;20180;-88
2022/01/26 06:51:54;;;;;;;;;;;3.60;90.10;;;;;;5054716;28;20162;-88
2022/01/26 06:54:20;;;;;;;;;;;3.60;89.90;;;;;;5049631;28;19919;-88
2022/01/26 06:56:45;;;;;;;;;;;3.50;90.00;;;;;;5046831;28;19912;-87
2022/01/26 06:59:12;;;;;;;;;;;3.50;90.20;;;;;;5046661;28;19913;-88
2022/01/26 07:01:38;;;;;;;;;;;3.40;90.40;;;;;;5048080;28;19917;-88
2022/01/26 07:04:03;;;;;;;;;;;3.40;90.60;;;;;;5061868;28;20351;-88
2022/01/26 07:06:29;;;;;;;;;;;3.40;90.70;;;;;;5049832;28;19962;-87
2022/01/26 07:08:54;;;;;;;;;;;3.40;90.90;;;;;;5045320;28;20431;-88
2022/01/26 07:11:20;;;;;;;;;;;3.30;91.00;;;;;;5048099;28;19999;-87
2022/01/26 07:13:46;;;;;;;;;;;3.30;91.00;;;;;;5047735;28;19925;-87
2022/01/26 07:21:40;;;;;;;;;;;3.30;91.30;;;;;;5045736;28;19919;-87
2022/01/26 07:24:05;;;;;;;;;;;3.40;91.50;;;;;;5039476;28;19916;-88
2022/01/26 07:26:31;;;;;;;;;;;3.40;91.60;;;;;;5045197;28;19948;-88
2022/01/26 07:28:57;;;;;;;;;;;3.50;91.60;;;;;;5045676;28;20290;-88
2022/01/26 07:31:23;;;;;;;;;;;3.60;91.60;;;;;;5044571;28;19921;-88
2022/01/26 07:33:54;;;;;;;;;;;3.50;91.50;;;;;;5046593;28;19920;-88
2022/01/26 07:36:20;;;;;;;;;;;3.70;91.50;;;;;;5048260;28;19932;-88
2022/01/26 07:38:49;;;;;;;;;;;3.80;90.90;;;;;;5049963;28;19959;-88
2022/01/26 07:41:15;;;;;;;;;;;3.70;90.50;;;;;;5044552;28;19920;-87
2022/01/26 07:43:40;;;;;;;;;;;3.60;90.80;;;;;;5048373;28;19936;-88
2022/01/26 07:46:06;;;;;;;;;;;3.50;90.90;;;;;;5043013;28;19917;-88
2022/01/26 07:48:32;;;;;;;;;;;3.40;91.20;;;;;;5042361;28;20374;-87
2022/01/26 07:50:57;;;;;;;;;;;3.40;91.40;;;;;;5047904;28;19917;-87
2022/01/26 07:53:23;;;;;;;;;;;3.40;91.60;;;;;;5051598;28;20394;-87
2022/01/26 07:55:49;;;;;;;;;;;3.30;91.80;;;;;;5049320;28;19920;-87
2022/01/26 07:58:15;;;;;;;;;;;3.30;92.00;;;;;;5051180;28;19990;-88
2022/01/26 08:00:41;;;;;;;;;;;3.20;92.10;;;;;;5064713;28;19932;-88
2022/01/26 08:03:06;;;;;;;;;;;3.30;92.00;;;;;;5047773;28;19920;-87
2022/01/26 08:05:32;;;;;;;;;;;3.40;92.00;;;;;;5050861;28;20007;-87
2022/01/26 08:07:57;;;;;;;;;;;3.50;92.00;;;;;;5052950;28;19932;-87
2022/01/26 08:10:23;;;;;;;;;;;3.60;91.90;;;;;;5029985;28;19917;-87
2022/01/26 08:12:49;;;;;;;;;;;3.80;91.80;;;;;;5050966;28;19912;-88
2022/01/26 08:15:15;;;;;;;;;;;3.90;91.60;;;;;;5049840;28;19913;-88
2022/01/26 08:17:40;;;;;;;;;;;4.00;91.10;;;;;;5048520;28;19949;-88
2022/01/26 08:20:07;;;;;;;;;;;4.10;90.10;;;;;;5052040;28;20351;-87
2022/01/26 08:22:34;;;;;;;;;;;4.10;89.50;;;;;;5051305;28;19913;-88
2022/01/26 08:24:59;;;;;;;;;;;3.90;89.50;;;;;;5055875;28;19912;-87
2022/01/26 08:27:28;;;;;;;;;;;3.80;89.80;;;;;;5051806;28;19939;-87
2022/01/26 08:30:00;;;;;;;;;;;3.70;90.00;;;;;;5052465;28;20406;-87
2022/01/26 08:32:26;;;;;;;;;;;3.60;90.20;;;;;;5054531;28;19924;-87
2022/01/26 08:34:52;;;;;;;;;;;3.50;90.80;;;;;;5048457;28;21512;-87
2022/01/26 08:37:18;;;;;;;;;;;3.40;91.10;;;;;;5049530;28;19931;-87
2022/01/26 08:39:43;;;;;;;;;;;3.60;91.00;;;;;;5050470;28;20386;-87
2022/01/26 08:42:09;;;;;;;;;;;3.60;90.90;;;;;;5036725;28;19921;-85
2022/01/26 08:44:35;;;;;;;;;;;3.70;90.80;;;;;;5045839;28;19995;-85
2022/01/26 08:47:02;;;;;;;;;;;3.70;90.80;;;;;;5052075;28;19935;-86
2022/01/26 08:49:29;;;;;;;;;;;3.80;91.00;;;;;;5044932;28;19917;-85
2022/01/26 08:51:55;;;;;;;;;;;4.00;90.80;;;;;;5049100;28;19919;-87
2022/01/26 08:54:22;;;;;;;;;;;4.10;90.50;;;;;;5049961;28;19999;-87
2022/01/26 08:56:49;;;;;;;;;;;4.20;90.10;;;;;;5043013;28;20367;-87
2022/01/26 08:59:15;;;;;;;;;;;4.40;89.70;;;;;;5043668;28;19919;-87
2022/01/26 09:01:40;;;;;;;;;;;4.40;88.60;;;;;;5043498;28;19917;-87
2022/01/26 09:04:06;;;;;;;;;;;4.20;88.30;;;;;;5043320;28;20267;-87
2022/01/26 09:06:33;;;;;;;;;;;4.00;89.10;;;;;;5050339;28;19924;-86
2022/01/26 09:09:05;;;;;;;;;;;4.00;89.60;;;;;;5046185;28;19917;-86
2022/01/26 09:11:31;;;;;;;;;;;4.00;89.80;;;;;;5048667;28;19917;-86
2022/01/26 09:13:58;;;;;;;;;;;4.00;89.70;;;;;;5047655;28;19920;-86
2022/01/26 09:16:25;;;;;;;;;;;3.90;89.90;;;;;;5039626;28;19913;-86
2022/01/26 09:18:57;;;;;;;;;;;3.90;90.00;;;;;;5050876;28;19920;-86
2022/01/26 09:21:24;;;;;;;;;;;4.00;89.90;;;;;;5046937;28;19916;-87
2022/01/26 09:23:50;;;;;;;;;;;3.90;90.10;;;;;;5046100;28;19928;-86
2022/01/26 09:26:17;;;;;;;;;;;3.90;90.10;;;;;;5050605;28;19913;-87
2022/01/26 09:28:42;;;;;;;;;;;3.90;90.30;;;;;;5048454;28;20050;-87
2022/01/26 09:31:08;;;;;;;;;;;3.90;90.70;;;;;;5043037;28;20007;-87
2022/01/26 09:33:33;;;;;;;;;;;4.10;90.60;;;;;;5049655;28;20392;-87
2022/01/26 09:35:59;;;;;;;;;;;4.40;90.40;;;;;;5047283;28;19932;-87
2022/01/26 09:38:25;;;;;;;;;;;4.60;90.00;;;;;;5040917;28;19913;-87
2022/01/26 09:40:51;;;;;;;;;;;4.70;89.20;;;;;;5041808;28;19971;-87
2022/01/26 09:43:17;;;;;;;;;;;4.80;88.60;;;;;;5048595;28;19913;-87
2022/01/26 09:45:44;;;;;;;;;;;4.80;88.10;;;;;;5056534;23;19924;-87
2022/01/26 09:48:13;;;;;;;;;;;4.90;88.10;;;;;;5072305;28;21320;-87
2022/01/26 09:50:42;;;;;;;;;;;4.90;88.30;;;;;;5070270;28;19977;-87
2022/01/26 09:53:10;;;;;;;;;;;4.70;88.10;;;;;;5063716;28;19960;-87
2022/01/26 09:55:36;;;;;;;;;;;4.60;88.70;;;;;;5070056;28;19954;-87
2022/01/26 09:58:02;;;;;;;;;;;4.70;88.90;;;;;;5063065;28;19921;-87
2022/01/26 10:00:28;;;;;;;;;;;4.60;89.10;;;;;;5063114;28;20457;-87
2022/01/26 10:03:04;;;;;;;;;;;4.60;89.60;;;;;;5061788;28;19943;-87
2022/01/26 10:05:44;;;;;;;;;;;4.70;89.40;;;;;;5061620;28;19920;-87
2022/01/26 10:16:02;;;;;;;;;;;5.00;88.50;;;;;;5046269;28;20310;-86
2022/01/26 10:18:30;;;;;;;;;;;5.00;88.50;;;;;;5046082;28;19913;-86
2022/01/26 10:20:59;;;;;;;;;;;5.00;88.90;;;;;;5044339;28;19913;-87
2022/01/26 10:23:29;;;;;;;;;;;5.00;88.10;;;;;;5046667;28;19935;-86
2022/01/26 10:26:03;;;;;;;;;;;4.90;88.00;;;;;;5047351;28;19919;-87
2022/01/26 10:28:44;;;;;;;;;;;4.90;88.10;;;;;;5047716;28;19921;-87
2022/01/26 10:31:23;;;;;;;;;;;4.90;88.10;;;;;;5049917;28;20096;-87
2022/01/26 10:33:59;;;;;;;;;;;5.00;87.70;;;;;;5049300;28;19960;-87
2022/01/26 10:36:25;;;;;;;;;;;5.00;87.70;;;;;;5048733;28;20007;-86
2022/01/26 10:39:02;;;;;;;;;;;5.00;88.00;;;;;;5042119;28;19966;-86
2022/01/26 10:41:27;;;;;;;;;;;5.00;87.70;;;;;;5050873;28;19913;-86
2022/01/26 10:43:55;;;;;;;;;;;5.00;87.70;;;;;;5049866;28;19913;-86
2022/01/26 10:46:29;;;;;;;;;;;5.00;87.90;;;;;;5045905;28;19921;-86
2022/01/26 10:49:18;;;;;;;;;;;5.10;87.60;;;;;;5043914;28;19974;-86
2022/01/26 10:54:36;;;;;;;;;;;5.10;87.50;;;;;;5046284;28;19913;-87
2022/01/26 10:57:06;;;;;;;;;;;5.10;87.50;;;;;;5051238;28;19916;-86
2022/01/26 10:59:32;;;;;;;;;;;5.20;87.70;;;;;;5069374;28;20489;-87
2022/01/26 11:02:00;;;;;;;;;;;5.20;87.50;;;;;;5053120;28;19928;-86
2022/01/26 11:04:27;;;;;;;;;;;5.20;87.30;;;;;;5054797;28;19913;-86
2022/01/26 11:06:53;;;;;;;;;;;5.20;87.30;;;;;;5051574;28;19959;-86
2022/01/26 11:09:21;;;;;;;;;;;5.30;87.60;;;;;;5055736;28;19913;-86
2022/01/26 11:11:46;;;;;;;;;;;5.30;87.30;;;;;;5055704;28;19967;-86
2022/01/26 11:14:24;;;;;;;;;;;5.40;87.50;;;;;;5053300;28;19917;-87
2022/01/26 11:16:51;;;;;;;;;;;5.40;86.90;;;;;;5041373;28;20008;-87
2022/01/26 11:19:16;;;;;;;;;;;5.50;86.80;;;;;;5055736;28;20046;-87
2022/01/26 11:21:43;;;;;;;;;;;5.50;85.90;;;;;;5055667;28;19963;-86
2022/01/26 11:24:24;;;;;;;;;;;5.60;86.00;;;;;;5055417;28;19935;-87
2022/01/26 11:27:01;;;;;;;;;;;5.70;85.50;;;;;;5055828;28;19913;-87
2022/01/26 11:29:32;;;;;;;;;;;5.80;84.70;;;;;;5055487;28;19916;-86
2022/01/26 11:32:12;;;;;;;;;;;6.10;84.10;;;;;;5055346;28;19983;-86
2022/01/26 11:34:38;;;;;;;;;;;6.30;83.00;;;;;;5055434;28;19908;-87
2022/01/26 11:37:06;;;;;;;;;;;6.40;83.00;;;;;;5055029;28;20272;-86
2022/01/26 11:45:01;;;;;;;;;;;6.80;80.70;;;;;;5055590;28;20261;-86
2022/01/26 11:45:10;;;;;;;;;;;6.90;79.60;;;;;;5055281;28;19916;-87
2022/01/26 11:47:38;;;;;;;;;;;7.20;79.10;;;;;;5054952;28;19921;-87
2022/01/26 11:50:14;;;;;;;;;;;7.40;78.90;;;;;;5055139;28;19932;-87
2022/01/26 11:52:43;;;;;;;;;;;7.60;75.50;;;;;;5055133;28;19967;-86
2022/01/26 11:55:19;;;;;;;;;;;7.70;75.50;;;;;;5055034;28;19913;-86
2022/01/26 11:57:52;;;;;;;;;;;7.80;73.30;;;;;;5054996;28;19955;-86
2022/01/26 12:00:33;;;;;;;;;;;7.90;73.60;;;;;;5055011;28;19916;-86
2022/01/26 12:02:59;;;;;;;;;;;8.00;71.80;;;;;;5054918;28;20050;-87
2022/01/26 12:05:26;;;;;;;;;;;8.30;73.80;;;;;;5054817;28;19916;-87
2022/01/26 12:07:56;;;;;;;;;;;8.40;72.50;;;;;;5054981;28;19913;-87
2022/01/26 12:10:29;;;;;;;;;;;8.60;73.30;;;;;;5054725;28;19999;-86
2022/01/26 12:13:03;;;;;;;;;;;8.50;72.20;;;;;;5054758;28;19917;-87
2022/01/26 12:15:33;;;;;;;;;;;8.40;72.80;;;;;;5054449;28;19919;-87
2022/01/26 12:18:15;;;;;;;;;;;7.90;70.70;;;;;;5054398;28;19909;-87
2022/01/26 12:42:11;;;;;;;;;;;6.40;78.70;;;;;;5038468;28;19920;-86
2022/01/26 12:44:37;;;;;;;;;;;6.40;77.20;;;;;;5051829;28;19948;-86
2022/01/26 12:47:03;;;;;;;;;;;6.60;77.40;;;;;;5064767;28;20373;-87
2022/01/26 12:49:29;;;;;;;;;;;6.70;76.00;;;;;;5052312;28;19927;-86
2022/01/26 12:51:54;;;;;;;;;;;6.70;76.60;;;;;;5052522;28;19923;-87
2022/01/26 12:54:20;;;;;;;;;;;6.60;76.60;;;;;;5052452;28;20329;-86
2022/01/26 12:56:46;;;;;;;;;;;6.70;76.90;;;;;;5045077;28;19913;-87
2022/01/26 12:59:17;;;;;;;;;;;6.80;76.80;;;;;;5044584;28;20289;-86
2022/01/26 13:01:44;;;;;;;;;;;6.60;76.60;;;;;;5051953;28;19967;-86
2022/01/26 13:04:11;;;;;;;;;;;6.50;77.20;;;;;;5059881;28;19923;-87
2022/01/26 13:06:41;;;;;;;;;;;6.50;77.20;;;;;;5048915;28;19913;-87
2022/01/26 13:09:17;;;;;;;;;;;6.50;78.30;;;;;;5052551;28;19912;-87
2022/01/26 13:11:44;;;;;;;;;;;6.70;77.80;;;;;;5050874;28;19920;-87
2022/01/26 13:14:17;;;;;;;;;;;6.70;77.20;;;;;;5051827;28;20468;-87
2022/01/26 13:16:56;;;;;;;;;;;6.60;76.50;;;;;;5048320;28;20004;-87
2022/01/26 13:30:09;;;;;;;;;;;6.70;75.70;;;;;;5047631;28;20514;-87
2022/01/26 13:38:21;;;;;;;;;;;6.60;75.90;;;;;;5059111;28;19913;-86
2022/01/26 13:43:40;;;;;;;;;;;6.40;77.60;;;;;;5049382;28;19963;-86
2022/01/26 13:53:45;;;;;;;;;;;6.40;78.20;;;;;;5049886;28;20436;-86
2022/01/26 13:56:17;;;;;;;;;;;6.40;77.70;;;;;;5050649;28;19921;-86
2022/01/26 14:01:29;;;;;;;;;;;6.30;77.20;;;;;;5028792;28;19974;-86
2022/01/26 14:03:58;;;;;;;;;;;6.30;77.90;;;;;;5050192;28;20341;-86
2022/01/26 14:06:24;;;;;;;;;;;6.30;77.80;;;;;;5050313;28;19919;-86
2022/01/26 14:08:49;;;;;;;;;;;6.30;77.10;;;;;;5052568;28;19913;-86
2022/01/26 14:11:15;;;;;;;;;;;6.30;77.50;;;;;;5044640;28;19924;-86
2022/01/26 14:13:43;;;;;;;;;;;6.40;77.20;;;;;;5045772;28;19913;-86
2022/01/26 14:16:10;;;;;;;;;;;6.40;77.00;;;;;;5044429;28;19959;-86
2022/01/26 14:21:28;;;;;;;;;;;6.40;76.50;;;;;;5046389;28;19913;-86
2022/01/26 14:26:25;;;;;;;;;;;6.40;76.60;;;;;;5047621;28;19921;-86
2022/01/26 14:28:51;;;;;;;;;;;6.40;76.50;;;;;;5064909;28;19989;-86
2022/01/26 14:31:28;;;;;;;;;;;6.50;76.70;;;;;;5055753;28;19912;-86
2022/01/26 14:34:20;;;;;;;;;;;6.50;76.50;;;;;;5044060;28;20427;-86
2022/01/26 14:40:03;;;;;;;;;;;6.60;76.70;;;;;;5024212;28;20255;-86
2022/01/26 15:20:57;;;;;;;;;;;6.30;75.90;;;;;;5044622;28;19921;-86
2022/01/26 15:34:06;;;;;;;;;;;5.90;79.20;;;;;;5039805;28;19913;-86
2022/01/26 15:50:07;;;;;;;;;;;5.50;80.20;;;;;;5045870;28;19913;-86
2022/01/26 16:06:10;;;;;;;;;;;5.40;81.00;;;;;;5045720;28;19999;-86
2022/01/26 16:12:42;;;;;;;;;;;5.30;81.20;;;;;;5046408;28;19928;-86
2022/01/26 16:38:02;;;;;;;;;;;4.90;83.40;;;;;;5048387;28;19917;-86
2022/01/26 18:13:31;;;;;;;;;;;3.40;88.80;;;;;;5032398;28;19924;-86
2022/01/26 18:16:00;;;;;;;;;;;3.40;89.00;;;;;;5030972;28;20443;-86
2022/01/26 18:32:15;;;;;;;;;;;3.20;88.20;;;;;;5031935;28;20354;-86
2022/01/26 18:50:47;;;;;;;;;;;3.00;90.30;;;;;;5031903;28;20115;-86
2022/01/26 18:53:13;;;;;;;;;;;3.00;90.30;;;;;;5030746;28;19960;-86
2022/01/26 18:55:39;;;;;;;;;;;2.90;89.90;;;;;;5029864;28;19921;-86
2022/01/26 18:58:04;;;;;;;;;;;2.70;90.30;;;;;;5031723;28;19913;-86
2022/01/26 19:00:30;;;;;;;;;;;2.70;90.50;;;;;;5032314;28;19913;-86
2022/01/26 19:02:57;;;;;;;;;;;2.70;90.70;;;;;;5031746;28;19913;-86
2022/01/26 19:05:23;;;;;;;;;;;2.60;90.70;;;;;;5031336;28;20025;-86
2022/01/26 19:07:49;;;;;;;;;;;2.60;90.80;;;;;;5031058;28;20006;-86
2022/01/26 19:10:15;;;;;;;;;;;2.50;90.80;;;;;;5030509;28;19970;-86
2022/01/26 19:12:42;;;;;;;;;;;2.50;90.90;;;;;;5034327;28;19921;-86
2022/01/26 19:15:12;;;;;;;;;;;2.50;91.00;;;;;;5035237;28;19920;-86
2022/01/26 19:17:45;;;;;;;;;;;2.50;91.00;;;;;;5033837;28;19917;-86
2022/01/26 19:20:32;;;;;;;;;;;2.60;91.10;;;;;;5035131;28;19917;-86
2022/01/26 19:25:51;;;;;;;;;;;2.60;90.90;;;;;;5033754;28;19923;-86
2022/01/26 19:28:28;;;;;;;;;;;2.60;89.80;;;;;;5036876;28;19917;-86
2022/01/26 19:51:31;;;;;;;;;;;2.00;91.10;;;;;;5034737;28;20385;-86
2022/01/26 19:53:56;;;;;;;;;;;2.10;90.90;;;;;;5034349;28;19992;-86
2022/01/26 19:56:22;;;;;;;;;;;2.00;90.60;;;;;;5033343;28;20003;-86
2022/01/26 19:58:48;;;;;;;;;;;2.00;90.50;;;;;;5049553;28;19921;-87
2022/01/26 20:01:13;;;;;;;;;;;1.90;90.60;;;;;;5033042;28;20334;-86
2022/01/26 20:03:39;;;;;;;;;;;2.00;90.70;;;;;;5034220;28;20279;-86
2022/01/26 20:06:07;;;;;;;;;;;1.90;90.50;;;;;;5034344;28;20326;-86
2022/01/26 20:08:39;;;;;;;;;;;1.90;90.60;;;;;;5032001;28;19925;-86
2022/01/26 20:11:09;;;;;;;;;;;1.90;90.80;;;;;;5032552;28;19917;-86
2022/01/26 20:13:45;;;;;;;;;;;1.80;90.60;;;;;;5033076;28;19955;-86
2022/01/26 20:16:11;;;;;;;;;;;1.60;90.40;;;;;;5033921;28;19917;-86
2022/01/26 20:18:37;;;;;;;;;;;1.50;90.80;;;;;;5033631;28;20295;-86
2022/01/26 20:21:04;;;;;;;;;;;1.40;91.00;;;;;;5033940;28;20405;-86
2022/01/26 20:23:33;;;;;;;;;;;1.30;91.50;;;;;;5033288;28;19919;-86
2022/01/26 20:26:01;;;;;;;;;;;1.30;91.50;;;;;;5034634;28;19909;-86
2022/01/26 20:28:28;;;;;;;;;;;1.30;91.70;;;;;;5032477;28;19993;-86
2022/01/26 20:30:54;;;;;;;;;;;1.30;92.10;;;;;;5033714;28;19913;-87
2022/01/26 20:33:20;;;;;;;;;;;1.30;92.20;;;;;;5032801;28;20283;-87
2022/01/26 20:35:46;;;;;;;;;;;1.40;92.00;;;;;;5034464;28;19909;-86
2022/01/26 20:38:11;;;;;;;;;;;1.50;91.80;;;;;;5031642;28;19914;-87
2022/01/26 20:40:37;;;;;;;;;;;1.50;91.50;;;;;;5033866;28;19913;-87
2022/01/26 20:43:02;;;;;;;;;;;1.60;91.30;;;;;;5032479;28;19920;-86
2022/01/26 20:45:30;;;;;;;;;;;1.50;90.80;;;;;;5032581;28;19913;-86
2022/01/26 20:47:57;;;;;;;;;;;1.50;90.90;;;;;;5033365;28;19963;-86
2022/01/26 20:50:24;;;;;;;;;;;1.40;90.20;;;;;;5033138;28;19913;-86
2022/01/26 20:52:49;;;;;;;;;;;1.30;90.00;;;;;;5032455;28;20398;-86
2022/01/26 20:55:15;;;;;;;;;;;1.30;90.50;;;;;;5033212;28;19921;-86
2022/01/26 20:57:41;;;;;;;;;;;1.20;90.70;;;;;;5033023;28;20261;-86
2022/01/26 21:00:08;;;;;;;;;;;1.10;90.50;;;;;;5033241;28;19913;-86
2022/01/26 21:02:34;;;;;;;;;;;1.10;91.10;;;;;;5032870;28;19921;-86
2022/01/26 21:05:00;;;;;;;;;;;1.20;91.40;;;;;;5034191;28;19913;-86
2022/01/26 21:07:25;;;;;;;;;;;1.20;91.40;;;;;;5032948;28;20000;-86
2022/01/26 21:09:51;;;;;;;;;;;1.20;91.40;;;;;;5031868;28;19913;-86
2022/01/26 21:12:16;;;;;;;;;;;1.20;91.20;;;;;;5032925;28;19982;-87
2022/01/26 21:14:42;;;;;;;;;;;1.20;91.00;;;;;;5032914;28;20000;-86
2022/01/26 21:17:08;;;;;;;;;;;1.20;90.80;;;;;;5033736;28;19916;-86
2022/01/26 21:19:34;;;;;;;;;;;1.20;90.40;;;;;;5032708;28;19920;-86
2022/01/26 21:22:00;;;;;;;;;;;1.10;90.30;;;;;;5032736;28;19913;-86
2022/01/26 21:24:26;;;;;;;;;;;1.10;90.20;;;;;;5032515;28;19963;-86
2022/01/26 21:26:52;;;;;;;;;;;1.10;90.40;;;;;;5032399;28;20002;-86
2022/01/26 21:29:17;;;;;;;;;;;1.20;91.40;;;;;;5030593;28;19913;-86
2022/01/26 21:31:43;;;;;;;;;;;1.20;91.90;;;;;;5032656;28;19940;-86
2022/01/26 21:34:09;;;;;;;;;;;1.00;91.60;;;;;;5031981;28;19913;-86
2022/01/26 21:36:34;;;;;;;;;;;0.80;91.10;;;;;;5032788;28;19920;-86
2022/01/26 21:39:00;;;;;;;;;;;0.70;91.30;;;;;;5032491;28;19917;-86
2022/01/26 21:41:25;;;;;;;;;;;0.70;91.70;;;;;;5032522;28;19913;-86
2022/01/26 21:43:51;;;;;;;;;;;0.80;91.80;;;;;;5032348;28;20359;-86